首页
METAR-TAF:

METAR-TAF

机场 :

基加利国际机场

吉佳利, 卢旺达

纬度: 01-58S, 经度: 030-07E, 海拔: 1491米

METAR: 丢失

时间: 14:16 (12:16 UTC)

预报

该预报发布于1小时和16分钟前的11:00 UTC
预报有效从20日的 12点(UTC)到 21日的 18点(UTC)
风速10节,风向
能見度: 7000
少量云层高于2000英尺, 积雨云.
多云层高于2200英尺
多云层高于9000英尺
雷暴, 雨
成为
从 20日的 15点(UTC)到 20日的 18点(UTC)
风速5节,风向北转东北
散云层高于2500英尺
多云层高于10000英尺
成为
从 20日的 20点(UTC)到 20日的 23点(UTC)
风速4节,风向西北
能見度: 7000
散云层高于2400英尺
散云层高于10000英尺
成为
从 21日的 01点(UTC)到 21日的 04点(UTC)
风速节,风向
能見度: 0800
散云层高于600英尺
散云层高于2000英尺
从 21日的 0800点(UTC)
风速6节,风向
能见度10公里或以上
多云层高于2200英尺
短暂存在
从 21日的 11点(UTC)到 21日的 15点(UTC)
风速10节,风向
少量云层高于2200英尺, 积雨云.
多云层高于2500英尺
雷暴, 雨

TAF: HRYR 201100Z 2012/2118 09010KT 7000 TSRA FEW020CB BKN022 BKN090 BECMG 2015/2018 03005KT NSW SCT025 BKN100 BECMG 2020/2023 32004KT 7000 SCT024 SCT100 BECMG 2101/2104 00000KT 0800 FG SCT006 SCT020 FM210800 10006KT 9999 NSW BKN022 TEMPO 2111/2115 09010KT TSRA FEW022CB BKN025

超过4000个机场的气象观测和天气预报(METAR&TAF报告)。

可查询的气象台以黄色和红色小点在地图上表示。

将鼠标移到小点上方,可查看气象台名称。

然后点击查看天气观测和预报。

如需切换地图:点击带黑十字的绿色按钮放大地图;点击带横线的绿色按钮缩小地图;或者点击绿色箭头查看邻近地区的地图。


METAR-TAF: